sensor_id;sensor_type;location;lat;lon;timestamp;P1;durP1;ratioP1;P2;durP2;ratioP2
73015;SDS011;61893;50.074;14.440;2023-02-28T00:01:35;10.23;;;5.20;;
73015;SDS011;61893;50.074;14.440;2023-02-28T00:04:01;14.93;;;5.93;;
73015;SDS011;61893;50.074;14.440;2023-02-28T00:06:27;9.93;;;5.73;;
73015;SDS011;61893;50.074;14.440;2023-02-28T00:08:53;13.60;;;6.50;;
73015;SDS011;61893;50.074;14.440;2023-02-28T00:11:22;14.03;;;5.80;;
73015;SDS011;61893;50.074;14.440;2023-02-28T00:14:14;11.50;;;5.23;;
73015;SDS011;61893;50.074;14.440;2023-02-28T00:17:04;11.83;;;5.97;;
73015;SDS011;61893;50.074;14.440;2023-02-28T00:19:31;11.33;;;5.83;;
73015;SDS011;61893;50.074;14.440;2023-02-28T00:22:02;9.13;;;5.53;;
73015;SDS011;61893;50.074;14.440;2023-02-28T00:24:46;14.47;;;6.07;;
73015;SDS011;61893;50.074;14.440;2023-02-28T00:27:13;11.17;;;5.83;;
73015;SDS011;61893;50.074;14.440;2023-02-28T00:29:42;11.27;;;5.53;;
73015;SDS011;61893;50.074;14.440;2023-02-28T00:32:08;12.60;;;6.00;;
73015;SDS011;61893;50.074;14.440;2023-02-28T00:34:46;13.40;;;6.53;;
73015;SDS011;61893;50.074;14.440;2023-02-28T00:37:21;9.10;;;5.57;;
73015;SDS011;61893;50.074;14.440;2023-02-28T00:40:11;13.43;;;5.53;;
73015;SDS011;61893;50.074;14.440;2023-02-28T00:42:42;11.63;;;6.20;;
73015;SDS011;61893;50.074;14.440;2023-02-28T00:45:16;8.50;;;5.15;;
73015;SDS011;61893;50.074;14.440;2023-02-28T00:47:42;9.30;;;5.70;;
73015;SDS011;61893;50.074;14.440;2023-02-28T00:50:08;11.40;;;5.70;;
73015;SDS011;61893;50.074;14.440;2023-02-28T00:52:55;10.20;;;5.87;;
73015;SDS011;61893;50.074;14.440;2023-02-28T00:55:35;9.37;;;5.70;;
73015;SDS011;61893;50.074;14.440;2023-02-28T00:58:05;12.87;;;6.50;;
73015;SDS011;61893;50.074;14.440;2023-02-28T01:00:46;12.03;;;6.07;;
73015;SDS011;61893;50.074;14.440;2023-02-28T01:03:27;9.57;;;5.13;;
73015;SDS011;61893;50.074;14.440;2023-02-28T01:06:22;13.80;;;6.65;;
73015;SDS011;61893;50.074;14.440;2023-02-28T01:08:48;10.30;;;5.17;;
73015;SDS011;61893;50.074;14.440;2023-02-28T01:11:15;15.77;;;5.73;;
73015;SDS011;61893;50.074;14.440;2023-02-28T01:13:43;13.23;;;6.63;;
73015;SDS011;61893;50.074;14.440;2023-02-28T01:16:10;11.23;;;6.27;;
73015;SDS011;61893;50.074;14.440;2023-02-28T01:18:38;11.10;;;5.60;;
73015;SDS011;61893;50.074;14.440;2023-02-28T01:21:09;9.73;;;5.73;;
73015;SDS011;61893;50.074;14.440;2023-02-28T01:23:39;13.63;;;7.13;;
73015;SDS011;61893;50.074;14.440;2023-02-28T01:26:06;10.97;;;5.47;;
73015;SDS011;61893;50.074;14.440;2023-02-28T01:28:34;15.67;;;6.43;;
73015;SDS011;61893;50.074;14.440;2023-02-28T01:30:59;13.00;;;6.47;;
73015;SDS011;61893;50.074;14.440;2023-02-28T01:33:26;11.90;;;6.07;;
73015;SDS011;61893;50.074;14.440;2023-02-28T01:36:04;12.73;;;6.67;;
73015;SDS011;61893;50.074;14.440;2023-02-28T01:38:54;12.20;;;6.20;;
73015;SDS011;61893;50.074;14.440;2023-02-28T01:41:28;15.63;;;6.60;;
73015;SDS011;61893;50.074;14.440;2023-02-28T01:47:27;15.10;;;6.17;;
73015;SDS011;61893;50.074;14.440;2023-02-28T01:50:18;10.23;;;5.50;;
73015;SDS011;61893;50.074;14.440;2023-02-28T01:53:13;10.87;;;5.83;;
73015;SDS011;61893;50.074;14.440;2023-02-28T01:56:10;14.57;;;6.57;;
73015;SDS011;61893;50.074;14.440;2023-02-28T01:59:14;14.47;;;6.20;;
73015;SDS011;61893;50.074;14.440;2023-02-28T02:01:56;10.65;;;5.55;;
73015;SDS011;61893;50.074;14.440;2023-02-28T02:04:25;12.63;;;5.27;;
73015;SDS011;61893;50.074;14.440;2023-02-28T02:07:25;11.47;;;5.37;;
73015;SDS011;61893;50.074;14.440;2023-02-28T02:10:04;12.40;;;6.33;;
73015;SDS011;61893;50.074;14.440;2023-02-28T02:15:28;13.90;;;6.37;;
73015;SDS011;61893;50.074;14.440;2023-02-28T02:18:02;11.00;;;5.33;;
73015;SDS011;61893;50.074;14.440;2023-02-28T02:23:38;13.67;;;5.60;;
73015;SDS011;61893;50.074;14.440;2023-02-28T02:26:44;10.57;;;5.13;;
73015;SDS011;61893;50.074;14.440;2023-02-28T02:35:43;10.87;;;5.30;;
73015;SDS011;61893;50.074;14.440;2023-02-28T02:38:42;9.53;;;4.50;;
73015;SDS011;61893;50.074;14.440;2023-02-28T02:41:25;9.87;;;5.07;;
73015;SDS011;61893;50.074;14.440;2023-02-28T02:43:58;10.40;;;4.90;;
73015;SDS011;61893;50.074;14.440;2023-02-28T02:46:45;10.33;;;5.13;;
73015;SDS011;61893;50.074;14.440;2023-02-28T02:49:20;12.27;;;5.27;;
73015;SDS011;61893;50.074;14.440;2023-02-28T02:51:49;11.43;;;5.47;;
73015;SDS011;61893;50.074;14.440;2023-02-28T02:54:36;9.87;;;6.37;;
73015;SDS011;61893;50.074;14.440;2023-02-28T02:57:07;11.07;;;5.10;;
73015;SDS011;61893;50.074;14.440;2023-02-28T02:59:37;12.13;;;6.47;;
73015;SDS011;61893;50.074;14.440;2023-02-28T03:02:06;13.27;;;6.53;;
73015;SDS011;61893;50.074;14.440;2023-02-28T03:04:46;14.90;;;7.67;;
73015;SDS011;61893;50.074;14.440;2023-02-28T03:07:17;13.97;;;6.73;;
73015;SDS011;61893;50.074;14.440;2023-02-28T03:09:50;13.07;;;6.17;;
73015;SDS011;61893;50.074;14.440;2023-02-28T03:12:17;12.40;;;6.30;;
73015;SDS011;61893;50.074;14.440;2023-02-28T03:15:06;10.97;;;5.60;;
73015;SDS011;61893;50.074;14.440;2023-02-28T03:17:54;12.03;;;6.33;;
73015;SDS011;61893;50.074;14.440;2023-02-28T03:23:45;11.53;;;4.77;;
73015;SDS011;61893;50.074;14.440;2023-02-28T03:26:24;11.63;;;5.53;;
73015;SDS011;61893;50.074;14.440;2023-02-28T03:31:54;10.73;;;4.23;;
73015;SDS011;61893;50.074;14.440;2023-02-28T03:34:33;8.43;;;4.80;;
73015;SDS011;61893;50.074;14.440;2023-02-28T03:37:07;10.97;;;5.20;;
73015;SDS011;61893;50.074;14.440;2023-02-28T03:39:39;7.47;;;4.13;;
73015;SDS011;61893;50.074;14.440;2023-02-28T03:42:24;6.43;;;3.80;;
73015;SDS011;61893;50.074;14.440;2023-02-28T03:45:00;11.17;;;5.50;;
73015;SDS011;61893;50.074;14.440;2023-02-28T03:47:33;13.03;;;5.57;;
73015;SDS011;61893;50.074;14.440;2023-02-28T03:50:13;10.10;;;5.47;;
73015;SDS011;61893;50.074;14.440;2023-02-28T03:52:49;10.53;;;5.50;;
73015;SDS011;61893;50.074;14.440;2023-02-28T03:55:19;8.57;;;4.63;;
73015;SDS011;61893;50.074;14.440;2023-02-28T03:58:01;10.23;;;5.47;;
73015;SDS011;61893;50.074;14.440;2023-02-28T04:00:40;14.20;;;5.20;;
73015;SDS011;61893;50.074;14.440;2023-02-28T04:03:16;9.03;;;5.17;;
73015;SDS011;61893;50.074;14.440;2023-02-28T04:06:05;11.20;;;5.77;;
73015;SDS011;61893;50.074;14.440;2023-02-28T04:08:34;11.87;;;6.30;;
73015;SDS011;61893;50.074;14.440;2023-02-28T04:11:32;12.23;;;5.10;;
73015;SDS011;61893;50.074;14.440;2023-02-28T04:14:06;10.10;;;4.90;;
73015;SDS011;61893;50.074;14.440;2023-02-28T04:16:37;10.87;;;5.17;;
73015;SDS011;61893;50.074;14.440;2023-02-28T04:19:07;10.03;;;5.17;;
73015;SDS011;61893;50.074;14.440;2023-02-28T04:21:43;7.63;;;3.77;;
73015;SDS011;61893;50.074;14.440;2023-02-28T04:24:15;11.10;;;5.33;;
73015;SDS011;61893;50.074;14.440;2023-02-28T04:26:45;11.63;;;6.17;;
73015;SDS011;61893;50.074;14.440;2023-02-28T04:29:26;12.07;;;5.50;;
73015;SDS011;61893;50.074;14.440;2023-02-28T04:31:56;11.10;;;5.97;;
73015;SDS011;61893;50.074;14.440;2023-02-28T04:34:24;9.37;;;5.03;;
73015;SDS011;61893;50.074;14.440;2023-02-28T04:37:15;14.30;;;6.73;;
73015;SDS011;61893;50.074;14.440;2023-02-28T04:39:41;11.47;;;5.67;;
73015;SDS011;61893;50.074;14.440;2023-02-28T04:42:15;11.30;;;6.00;;
73015;SDS011;61893;50.074;14.440;2023-02-28T04:44:51;11.93;;;6.60;;
73015;SDS011;61893;50.074;14.440;2023-02-28T04:47:18;8.83;;;5.03;;
73015;SDS011;61893;50.074;14.440;2023-02-28T04:49:49;11.77;;;5.53;;
73015;SDS011;61893;50.074;14.440;2023-02-28T04:52:16;11.97;;;6.00;;
73015;SDS011;61893;50.074;14.440;2023-02-28T04:54:50;11.97;;;6.43;;
73015;SDS011;61893;50.074;14.440;2023-02-28T04:57:44;10.43;;;5.47;;
73015;SDS011;61893;50.074;14.440;2023-02-28T05:00:10;9.77;;;5.63;;
73015;SDS011;61893;50.074;14.440;2023-02-28T05:02:40;8.90;;;4.03;;
73015;SDS011;61893;50.074;14.440;2023-02-28T05:05:09;13.00;;;5.70;;
73015;SDS011;61893;50.074;14.440;2023-02-28T05:07:45;10.93;;;5.47;;
73015;SDS011;61893;50.074;14.440;2023-02-28T05:10:11;12.80;;;5.67;;
73015;SDS011;61893;50.074;14.440;2023-02-28T05:12:38;9.70;;;6.03;;
73015;SDS011;61893;50.074;14.440;2023-02-28T05:15:07;8.90;;;4.73;;
73015;SDS011;61893;50.074;14.440;2023-02-28T05:17:41;12.70;;;6.00;;
73015;SDS011;61893;50.074;14.440;2023-02-28T05:20:10;10.07;;;5.13;;
73015;SDS011;61893;50.074;14.440;2023-02-28T05:22:40;10.70;;;5.63;;
73015;SDS011;61893;50.074;14.440;2023-02-28T05:25:06;10.97;;;6.10;;
73015;SDS011;61893;50.074;14.440;2023-02-28T05:27:38;11.50;;;5.70;;
73015;SDS011;61893;50.074;14.440;2023-02-28T05:30:08;9.70;;;4.83;;
73015;SDS011;61893;50.074;14.440;2023-02-28T05:32:39;12.43;;;6.27;;
73015;SDS011;61893;50.074;14.440;2023-02-28T05:35:09;9.53;;;4.27;;
73015;SDS011;61893;50.074;14.440;2023-02-28T05:37:37;11.33;;;5.80;;
73015;SDS011;61893;50.074;14.440;2023-02-28T05:40:04;10.27;;;5.80;;
73015;SDS011;61893;50.074;14.440;2023-02-28T05:42:32;10.33;;;5.50;;
73015;SDS011;61893;50.074;14.440;2023-02-28T05:45:01;13.53;;;5.67;;
73015;SDS011;61893;50.074;14.440;2023-02-28T05:47:30;13.27;;;6.37;;
73015;SDS011;61893;50.074;14.440;2023-02-28T05:50:08;12.63;;;6.23;;
73015;SDS011;61893;50.074;14.440;2023-02-28T05:52:51;9.03;;;5.43;;
73015;SDS011;61893;50.074;14.440;2023-02-28T05:56:05;11.33;;;4.60;;
73015;SDS011;61893;50.074;14.440;2023-02-28T05:58:34;11.40;;;5.13;;
73015;SDS011;61893;50.074;14.440;2023-02-28T06:01:19;11.57;;;4.97;;
73015;SDS011;61893;50.074;14.440;2023-02-28T06:04:01;14.13;;;6.27;;
73015;SDS011;61893;50.074;14.440;2023-02-28T06:06:32;11.13;;;5.60;;
73015;SDS011;61893;50.074;14.440;2023-02-28T06:09:10;12.03;;;5.13;;
73015;SDS011;61893;50.074;14.440;2023-02-28T06:11:37;11.47;;;6.93;;
73015;SDS011;61893;50.074;14.440;2023-02-28T06:14:05;8.43;;;4.33;;
73015;SDS011;61893;50.074;14.440;2023-02-28T06:16:55;12.03;;;5.80;;
73015;SDS011;61893;50.074;14.440;2023-02-28T06:19:27;10.77;;;5.33;;
73015;SDS011;61893;50.074;14.440;2023-02-28T06:21:58;9.77;;;4.53;;
73015;SDS011;61893;50.074;14.440;2023-02-28T06:24:26;9.97;;;5.40;;
73015;SDS011;61893;50.074;14.440;2023-02-28T06:26:57;8.03;;;4.67;;
73015;SDS011;61893;50.074;14.440;2023-02-28T06:29:33;13.00;;;5.97;;
73015;SDS011;61893;50.074;14.440;2023-02-28T06:32:01;11.30;;;6.43;;
73015;SDS011;61893;50.074;14.440;2023-02-28T06:34:31;12.03;;;5.30;;
73015;SDS011;61893;50.074;14.440;2023-02-28T06:36:59;13.30;;;5.97;;
73015;SDS011;61893;50.074;14.440;2023-02-28T06:39:28;11.43;;;6.53;;
73015;SDS011;61893;50.074;14.440;2023-02-28T06:41:58;14.23;;;5.80;;
73015;SDS011;61893;50.074;14.440;2023-02-28T06:44:26;11.73;;;6.07;;
73015;SDS011;61893;50.074;14.440;2023-02-28T06:47:07;10.83;;;6.00;;
73015;SDS011;61893;50.074;14.440;2023-02-28T06:49:36;12.97;;;7.23;;
73015;SDS011;61893;50.074;14.440;2023-02-28T06:52:02;17.43;;;8.30;;
73015;SDS011;61893;50.074;14.440;2023-02-28T06:54:56;13.10;;;6.00;;
73015;SDS011;61893;50.074;14.440;2023-02-28T06:57:31;14.80;;;6.50;;
73015;SDS011;61893;50.074;14.440;2023-02-28T07:00:32;12.13;;;6.33;;
73015;SDS011;61893;50.074;14.440;2023-02-28T07:03:20;10.87;;;5.27;;
73015;SDS011;61893;50.074;14.440;2023-02-28T07:06:57;11.97;;;6.03;;
73015;SDS011;61893;50.074;14.440;2023-02-28T07:10:13;10.93;;;5.77;;
73015;SDS011;61893;50.074;14.440;2023-02-28T07:13:15;10.60;;;5.63;;
73015;SDS011;61893;50.074;14.440;2023-02-28T07:15:42;13.37;;;6.70;;
73015;SDS011;61893;50.074;14.440;2023-02-28T07:18:08;11.03;;;6.67;;
73015;SDS011;61893;50.074;14.440;2023-02-28T07:20:55;14.80;;;7.07;;
73015;SDS011;61893;50.074;14.440;2023-02-28T07:23:49;11.45;;;5.95;;
73015;SDS011;61893;50.074;14.440;2023-02-28T07:26:46;15.67;;;7.70;;
73015;SDS011;61893;50.074;14.440;2023-02-28T07:29:18;12.13;;;6.47;;
73015;SDS011;61893;50.074;14.440;2023-02-28T07:32:00;17.63;;;7.40;;
73015;SDS011;61893;50.074;14.440;2023-02-28T07:34:50;14.53;;;6.73;;
73015;SDS011;61893;50.074;14.440;2023-02-28T07:37:53;13.27;;;6.57;;
73015;SDS011;61893;50.074;14.440;2023-02-28T07:40:19;14.07;;;6.30;;
73015;SDS011;61893;50.074;14.440;2023-02-28T07:43:09;14.87;;;7.07;;
73015;SDS011;61893;50.074;14.440;2023-02-28T07:46:11;16.87;;;6.80;;
73015;SDS011;61893;50.074;14.440;2023-02-28T07:49:13;12.73;;;6.20;;
73015;SDS011;61893;50.074;14.440;2023-02-28T07:52:23;12.97;;;7.03;;
73015;SDS011;61893;50.074;14.440;2023-02-28T07:55:48;13.93;;;7.13;;
73015;SDS011;61893;50.074;14.440;2023-02-28T07:59:07;14.10;;;6.83;;
73015;SDS011;61893;50.074;14.440;2023-02-28T08:01:59;11.10;;;6.80;;
73015;SDS011;61893;50.074;14.440;2023-02-28T08:05:11;15.20;;;6.63;;
73015;SDS011;61893;50.074;14.440;2023-02-28T08:08:19;15.70;;;6.93;;
73015;SDS011;61893;50.074;14.440;2023-02-28T08:11:45;14.90;;;7.80;;
73015;SDS011;61893;50.074;14.440;2023-02-28T08:15:12;11.17;;;6.70;;
73015;SDS011;61893;50.074;14.440;2023-02-28T08:19:06;15.40;;;7.03;;
73015;SDS011;61893;50.074;14.440;2023-02-28T08:22:54;10.47;;;6.23;;
73015;SDS011;61893;50.074;14.440;2023-02-28T08:26:05;13.40;;;7.07;;
73015;SDS011;61893;50.074;14.440;2023-02-28T08:29:14;14.93;;;7.43;;
73015;SDS011;61893;50.074;14.440;2023-02-28T08:32:34;11.40;;;6.82;;
73015;SDS011;61893;50.074;14.440;2023-02-28T08:35:45;11.97;;;6.80;;
73015;SDS011;61893;50.074;14.440;2023-02-28T08:38:41;13.47;;;6.80;;
73015;SDS011;61893;50.074;14.440;2023-02-28T08:42:03;13.53;;;7.17;;
73015;SDS011;61893;50.074;14.440;2023-02-28T08:47:38;13.33;;;7.03;;
73015;SDS011;61893;50.074;14.440;2023-02-28T08:50:30;13.50;;;7.57;;
73015;SDS011;61893;50.074;14.440;2023-02-28T08:52:56;12.67;;;7.20;;
73015;SDS011;61893;50.074;14.440;2023-02-28T09:04:23;13.30;;;7.67;;
73015;SDS011;61893;50.074;14.440;2023-02-28T09:06:51;12.43;;;6.73;;
73015;SDS011;61893;50.074;14.440;2023-02-28T09:09:21;20.90;;;8.43;;
73015;SDS011;61893;50.074;14.440;2023-02-28T09:18:19;10.63;;;6.33;;
73015;SDS011;61893;50.074;14.440;2023-02-28T09:21:12;12.07;;;6.77;;
73015;SDS011;61893;50.074;14.440;2023-02-28T09:23:42;13.60;;;6.78;;
73015;SDS011;61893;50.074;14.440;2023-02-28T09:26:26;11.53;;;5.93;;
73015;SDS011;61893;50.074;14.440;2023-02-28T09:28:56;14.83;;;7.00;;
73015;SDS011;61893;50.074;14.440;2023-02-28T09:31:26;18.73;;;6.90;;
73015;SDS011;61893;50.074;14.440;2023-02-28T09:33:56;11.93;;;6.70;;
73015;SDS011;61893;50.074;14.440;2023-02-28T09:36:23;13.90;;;6.50;;
73015;SDS011;61893;50.074;14.440;2023-02-28T09:38:52;10.93;;;6.60;;
73015;SDS011;61893;50.074;14.440;2023-02-28T09:41:44;13.37;;;7.43;;
73015;SDS011;61893;50.074;14.440;2023-02-28T10:01:12;10.53;;;5.70;;
73015;SDS011;61893;50.074;14.440;2023-02-28T10:04:13;12.83;;;6.00;;
73015;SDS011;61893;50.074;14.440;2023-02-28T10:06:54;17.33;;;6.32;;
73015;SDS011;61893;50.074;14.440;2023-02-28T10:09:23;12.47;;;6.50;;
73015;SDS011;61893;50.074;14.440;2023-02-28T10:12:12;8.87;;;4.57;;
73015;SDS011;61893;50.074;14.440;2023-02-28T10:15:37;13.17;;;6.30;;
73015;SDS011;61893;50.074;14.440;2023-02-28T10:27:09;11.03;;;6.80;;
73015;SDS011;61893;50.074;14.440;2023-02-28T10:30:17;13.60;;;6.87;;
73015;SDS011;61893;50.074;14.440;2023-02-28T10:34:11;11.37;;;6.07;;
73015;SDS011;61893;50.074;14.440;2023-02-28T10:38:10;12.53;;;6.50;;
73015;SDS011;61893;50.074;14.440;2023-02-28T10:41:42;11.77;;;6.78;;
73015;SDS011;61893;50.074;14.440;2023-02-28T10:45:15;13.97;;;6.63;;
73015;SDS011;61893;50.074;14.440;2023-02-28T10:48:45;11.97;;;6.27;;
73015;SDS011;61893;50.074;14.440;2023-02-28T10:51:38;11.80;;;5.07;;
73015;SDS011;61893;50.074;14.440;2023-02-28T10:54:22;13.90;;;6.97;;
73015;SDS011;61893;50.074;14.440;2023-02-28T10:57:34;10.80;;;6.07;;
73015;SDS011;61893;50.074;14.440;2023-02-28T11:00:25;12.17;;;7.23;;
73015;SDS011;61893;50.074;14.440;2023-02-28T11:36:27;13.37;;;6.83;;
73015;SDS011;61893;50.074;14.440;2023-02-28T11:44:31;15.80;;;7.00;;
73015;SDS011;61893;50.074;14.440;2023-02-28T11:52:21;15.17;;;8.37;;
73015;SDS011;61893;50.074;14.440;2023-02-28T11:58:00;12.37;;;7.07;;
73015;SDS011;61893;50.074;14.440;2023-02-28T12:00:50;14.32;;;7.05;;
73015;SDS011;61893;50.074;14.440;2023-02-28T12:08:47;10.07;;;6.20;;
73015;SDS011;61893;50.074;14.440;2023-02-28T12:17:21;15.33;;;7.67;;
73015;SDS011;61893;50.074;14.440;2023-02-28T12:29:01;16.40;;;7.18;;
73015;SDS011;61893;50.074;14.440;2023-02-28T12:32:56;13.33;;;6.20;;
73015;SDS011;61893;50.074;14.440;2023-02-28T12:36:05;12.57;;;6.93;;
73015;SDS011;61893;50.074;14.440;2023-02-28T12:43:00;15.77;;;7.70;;
73015;SDS011;61893;50.074;14.440;2023-02-28T12:45:52;16.23;;;7.33;;
73015;SDS011;61893;50.074;14.440;2023-02-28T12:51:52;14.27;;;7.00;;
73015;SDS011;61893;50.074;14.440;2023-02-28T12:58:14;15.03;;;6.87;;
73015;SDS011;61893;50.074;14.440;2023-02-28T13:01:25;14.80;;;7.40;;
73015;SDS011;61893;50.074;14.440;2023-02-28T13:11:46;14.70;;;7.43;;
73015;SDS011;61893;50.074;14.440;2023-02-28T13:19:31;14.57;;;7.97;;
73015;SDS011;61893;50.074;14.440;2023-02-28T13:22:00;17.60;;;7.17;;
73015;SDS011;61893;50.074;14.440;2023-02-28T13:29:27;13.63;;;6.83;;
73015;SDS011;61893;50.074;14.440;2023-02-28T13:35:14;16.43;;;8.37;;
73015;SDS011;61893;50.074;14.440;2023-02-28T13:37:36;14.53;;;8.00;;
73015;SDS011;61893;50.074;14.440;2023-02-28T13:45:24;14.60;;;8.10;;
73015;SDS011;61893;50.074;14.440;2023-02-28T13:48:23;15.67;;;7.80;;
73015;SDS011;61893;50.074;14.440;2023-02-28T13:50:59;10.77;;;6.67;;
73015;SDS011;61893;50.074;14.440;2023-02-28T14:07:26;13.37;;;6.90;;
73015;SDS011;61893;50.074;14.440;2023-02-28T14:11:04;15.63;;;7.73;;
73015;SDS011;61893;50.074;14.440;2023-02-28T14:13:55;15.67;;;8.23;;
73015;SDS011;61893;50.074;14.440;2023-02-28T14:17:06;13.20;;;7.60;;
73015;SDS011;61893;50.074;14.440;2023-02-28T14:19:55;17.37;;;7.40;;
73015;SDS011;61893;50.074;14.440;2023-02-28T14:29:29;13.77;;;7.53;;
73015;SDS011;61893;50.074;14.440;2023-02-28T14:32:41;15.50;;;7.73;;
73015;SDS011;61893;50.074;14.440;2023-02-28T14:38:33;14.73;;;8.37;;
73015;SDS011;61893;50.074;14.440;2023-02-28T14:42:34;13.03;;;7.50;;
73015;SDS011;61893;50.074;14.440;2023-02-28T14:45:04;17.33;;;7.30;;
73015;SDS011;61893;50.074;14.440;2023-02-28T14:47:51;20.30;;;7.83;;
73015;SDS011;61893;50.074;14.440;2023-02-28T14:51:33;13.10;;;7.50;;
73015;SDS011;61893;50.074;14.440;2023-02-28T14:54:51;16.75;;;8.32;;
73015;SDS011;61893;50.074;14.440;2023-02-28T15:05:51;16.57;;;8.20;;
73015;SDS011;61893;50.074;14.440;2023-02-28T15:08:25;19.37;;;8.57;;
73015;SDS011;61893;50.074;14.440;2023-02-28T15:11:06;12.70;;;8.20;;
73015;SDS011;61893;50.074;14.440;2023-02-28T15:14:01;17.80;;;8.60;;
73015;SDS011;61893;50.074;14.440;2023-02-28T15:17:21;14.43;;;7.03;;
73015;SDS011;61893;50.074;14.440;2023-02-28T15:20:53;12.70;;;6.63;;
73015;SDS011;61893;50.074;14.440;2023-02-28T15:24:10;15.67;;;7.33;;
73015;SDS011;61893;50.074;14.440;2023-02-28T15:27:14;12.70;;;6.17;;
73015;SDS011;61893;50.074;14.440;2023-02-28T15:29:50;13.57;;;7.57;;
73015;SDS011;61893;50.074;14.440;2023-02-28T15:32:31;17.10;;;8.13;;
73015;SDS011;61893;50.074;14.440;2023-02-28T15:35:43;14.67;;;8.20;;
73015;SDS011;61893;50.074;14.440;2023-02-28T15:37:57;13.47;;;8.17;;
73015;SDS011;61893;50.074;14.440;2023-02-28T15:40:40;14.80;;;8.53;;
73015;SDS011;61893;50.074;14.440;2023-02-28T15:43:17;16.93;;;8.47;;
73015;SDS011;61893;50.074;14.440;2023-02-28T15:45:50;15.97;;;7.80;;
73015;SDS011;61893;50.074;14.440;2023-02-28T15:48:47;15.33;;;8.40;;
73015;SDS011;61893;50.074;14.440;2023-02-28T15:51:32;15.00;;;8.20;;
73015;SDS011;61893;50.074;14.440;2023-02-28T15:54:07;18.33;;;10.00;;
73015;SDS011;61893;50.074;14.440;2023-02-28T15:56:39;18.47;;;8.73;;
73015;SDS011;61893;50.074;14.440;2023-02-28T15:59:15;16.67;;;9.23;;
73015;SDS011;61893;50.074;14.440;2023-02-28T16:01:46;18.87;;;9.03;;
73015;SDS011;61893;50.074;14.440;2023-02-28T16:04:16;13.43;;;7.83;;
73015;SDS011;61893;50.074;14.440;2023-02-28T16:06:46;13.37;;;8.13;;
73015;SDS011;61893;50.074;14.440;2023-02-28T16:09:24;15.33;;;7.70;;
73015;SDS011;61893;50.074;14.440;2023-02-28T16:11:54;17.80;;;9.10;;
73015;SDS011;61893;50.074;14.440;2023-02-28T16:14:26;14.43;;;6.53;;
73015;SDS011;61893;50.074;14.440;2023-02-28T16:17:20;18.30;;;9.57;;
73015;SDS011;61893;50.074;14.440;2023-02-28T16:19:51;17.13;;;8.53;;
73015;SDS011;61893;50.074;14.440;2023-02-28T16:22:46;16.47;;;7.90;;
73015;SDS011;61893;50.074;14.440;2023-02-28T16:25:44;16.07;;;8.40;;
73015;SDS011;61893;50.074;14.440;2023-02-28T16:28:30;16.20;;;8.40;;
73015;SDS011;61893;50.074;14.440;2023-02-28T16:31:37;21.47;;;9.10;;
73015;SDS011;61893;50.074;14.440;2023-02-28T16:34:07;18.40;;;9.20;;
73015;SDS011;61893;50.074;14.440;2023-02-28T16:39:34;21.60;;;8.10;;
73015;SDS011;61893;50.074;14.440;2023-02-28T16:42:27;21.57;;;8.57;;
73015;SDS011;61893;50.074;14.440;2023-02-28T16:45:28;17.20;;;7.83;;
73015;SDS011;61893;50.074;14.440;2023-02-28T16:48:26;18.87;;;8.07;;
73015;SDS011;61893;50.074;14.440;2023-02-28T16:50:56;14.80;;;8.27;;
73015;SDS011;61893;50.074;14.440;2023-02-28T16:53:39;16.70;;;8.60;;
73015;SDS011;61893;50.074;14.440;2023-02-28T16:56:16;20.07;;;9.10;;
73015;SDS011;61893;50.074;14.440;2023-02-28T16:58:49;20.33;;;8.80;;
73015;SDS011;61893;50.074;14.440;2023-02-28T17:01:15;21.33;;;8.60;;
73015;SDS011;61893;50.074;14.440;2023-02-28T17:03:55;19.73;;;8.63;;
73015;SDS011;61893;50.074;14.440;2023-02-28T17:06:26;20.90;;;8.57;;
73015;SDS011;61893;50.074;14.440;2023-02-28T17:09:17;16.33;;;7.88;;
73015;SDS011;61893;50.074;14.440;2023-02-28T17:12:52;16.80;;;8.33;;
73015;SDS011;61893;50.074;14.440;2023-02-28T17:15:53;16.17;;;8.70;;
73015;SDS011;61893;50.074;14.440;2023-02-28T17:18:40;19.70;;;8.93;;
73015;SDS011;61893;50.074;14.440;2023-02-28T17:21:31;18.53;;;10.03;;
73015;SDS011;61893;50.074;14.440;2023-02-28T17:24:39;19.50;;;8.90;;
73015;SDS011;61893;50.074;14.440;2023-02-28T17:27:12;19.07;;;9.73;;
73015;SDS011;61893;50.074;14.440;2023-02-28T17:29:40;18.00;;;9.90;;
73015;SDS011;61893;50.074;14.440;2023-02-28T17:32:09;22.03;;;9.30;;
73015;SDS011;61893;50.074;14.440;2023-02-28T17:34:37;18.50;;;9.43;;
73015;SDS011;61893;50.074;14.440;2023-02-28T17:40:06;16.60;;;9.33;;
73015;SDS011;61893;50.074;14.440;2023-02-28T17:42:47;16.10;;;7.40;;
73015;SDS011;61893;50.074;14.440;2023-02-28T17:45:41;19.00;;;9.27;;
73015;SDS011;61893;50.074;14.440;2023-02-28T17:48:42;22.67;;;9.67;;
73015;SDS011;61893;50.074;14.440;2023-02-28T17:52:17;17.47;;;9.27;;
73015;SDS011;61893;50.074;14.440;2023-02-28T17:59:00;17.90;;;9.17;;
73015;SDS011;61893;50.074;14.440;2023-02-28T18:01:36;15.60;;;8.63;;
73015;SDS011;61893;50.074;14.440;2023-02-28T18:09:46;17.47;;;8.83;;
73015;SDS011;61893;50.074;14.440;2023-02-28T18:12:18;21.50;;;9.87;;
73015;SDS011;61893;50.074;14.440;2023-02-28T18:18:04;16.70;;;8.87;;
73015;SDS011;61893;50.074;14.440;2023-02-28T18:20:36;17.20;;;8.60;;
73015;SDS011;61893;50.074;14.440;2023-02-28T18:23:08;19.60;;;9.57;;
73015;SDS011;61893;50.074;14.440;2023-02-28T18:25:34;16.23;;;9.40;;
73015;SDS011;61893;50.074;14.440;2023-02-28T18:28:01;19.83;;;9.50;;
73015;SDS011;61893;50.074;14.440;2023-02-28T18:30:29;20.73;;;9.60;;
73015;SDS011;61893;50.074;14.440;2023-02-28T18:33:00;18.60;;;9.33;;
73015;SDS011;61893;50.074;14.440;2023-02-28T18:35:27;22.87;;;10.57;;
73015;SDS011;61893;50.074;14.440;2023-02-28T18:38:00;23.70;;;10.03;;
73015;SDS011;61893;50.074;14.440;2023-02-28T18:40:31;23.30;;;11.50;;
73015;SDS011;61893;50.074;14.440;2023-02-28T18:42:57;23.67;;;11.23;;
73015;SDS011;61893;50.074;14.440;2023-02-28T18:45:24;18.50;;;9.93;;
73015;SDS011;61893;50.074;14.440;2023-02-28T19:49:32;29.07;;;13.03;;
73015;SDS011;61893;50.074;14.440;2023-02-28T19:51:59;23.60;;;12.73;;
73015;SDS011;61893;50.074;14.440;2023-02-28T19:54:28;27.50;;;13.53;;
73015;SDS011;61893;50.074;14.440;2023-02-28T19:57:15;21.37;;;10.77;;
73015;SDS011;61893;50.074;14.440;2023-02-28T19:59:43;24.23;;;12.30;;
73015;SDS011;61893;50.074;14.440;2023-02-28T20:18:20;22.60;;;11.53;;
73015;SDS011;61893;50.074;14.440;2023-02-28T20:21:03;23.80;;;12.00;;
73015;SDS011;61893;50.074;14.440;2023-02-28T20:23:30;27.07;;;11.77;;
73015;SDS011;61893;50.074;14.440;2023-02-28T20:28:35;24.60;;;11.90;;
73015;SDS011;61893;50.074;14.440;2023-02-28T20:34:09;23.97;;;11.57;;
73015;SDS011;61893;50.074;14.440;2023-02-28T20:36:39;26.13;;;12.70;;
73015;SDS011;61893;50.074;14.440;2023-02-28T20:39:08;23.93;;;11.23;;
73015;SDS011;61893;50.074;14.440;2023-02-28T20:41:39;25.03;;;11.90;;
73015;SDS011;61893;50.074;14.440;2023-02-28T20:44:08;23.83;;;12.23;;
73015;SDS011;61893;50.074;14.440;2023-02-28T20:46:43;31.08;;;12.93;;
73015;SDS011;61893;50.074;14.440;2023-02-28T20:49:13;24.93;;;11.60;;
73015;SDS011;61893;50.074;14.440;2023-02-28T20:51:42;25.57;;;11.87;;
73015;SDS011;61893;50.074;14.440;2023-02-28T20:54:14;27.87;;;13.03;;
73015;SDS011;61893;50.074;14.440;2023-02-28T20:56:41;25.83;;;12.87;;